Time;durP1;ratioP1;P1;durP2;ratioP2;P2;SDS_P1;SDS_P2;PMS_P1;PMS_P2;Temp;Humidity;BMP_temperature;BMP_pressure;BME280_temperature;BME280_humidity;BME280_pressure;Samples;Min_cycle;Max_cycle;Signal;HPM_P1;HPM_P2
2020/12/09 00:02:21;;;;;;;49.85;21.70;;;;;;;2.84;nan;95366.97;5045986;28;20302;-38
2020/12/09 00:04:48;;;;;;;48.10;22.05;;;;;;;2.84;nan;95377.25;5040273;28;20614;-38
2020/12/09 00:07:16;;;;;;;42.05;20.58;;;;;;;2.81;nan;95373.09;5044252;28;20266;-38
2020/12/09 00:09:42;;;;;;;56.58;21.90;;;;;;;2.47;nan;95306.44;5045342;28;20244;-38
2020/12/09 00:12:10;;;;;;;49.65;19.80;;;;;;;2.97;nan;95374.00;5038269;28;20467;-38
2020/12/09 00:14:36;;;;;;;47.83;22.38;;;;;;;3.02;nan;95384.84;5045614;28;20516;-39
2020/12/09 00:17:03;;;;;;;43.67;21.15;;;;;;;2.90;nan;95362.38;5045916;28;20749;-39
2020/12/09 00:19:30;;;;;;;46.92;21.15;;;;;;;2.87;nan;95375.34;5045868;28;20297;-38
2020/12/09 00:21:57;;;;;;;42.92;19.75;;;;;;;2.91;nan;95384.59;5047458;28;20568;-38
2020/12/09 00:24:24;;;;;;;43.63;20.38;;;;;;;2.90;nan;95377.78;5049593;28;20668;-38
2020/12/09 00:26:52;;;;;;;42.13;19.80;;;;;;;2.95;nan;95386.06;5050147;28;20587;-38
2020/12/09 00:29:19;;;;;;;50.55;21.15;;;;;;;2.96;nan;95382.63;5046500;28;20545;-38
2020/12/09 00:32:04;;;;;;;47.92;21.65;;;;;;;2.91;nan;95388.88;5058208;28;20509;-38
2020/12/09 00:34:37;;;;;;;51.58;22.10;;;;;;;2.86;nan;95386.53;5049096;28;20682;-38
2020/12/09 00:37:05;;;;;;;52.50;22.88;;;;;;;2.98;nan;95390.22;5052741;28;20346;-39
2020/12/09 00:39:33;;;;;;;47.65;21.90;;;;;;;3.06;nan;95394.06;5046791;28;20741;-39
2020/12/09 00:42:00;;;;;;;56.00;22.35;;;;;;;3.08;nan;95392.22;5049752;28;20232;-38
2020/12/09 00:44:27;;;;;;;58.22;25.00;;;;;;;3.12;nan;95390.34;5047978;28;20298;-38
2020/12/09 00:46:54;;;;;;;56.70;22.80;;;;;;;3.18;nan;95398.56;5057374;28;20310;-38
2020/12/09 00:49:21;;;;;;;49.75;22.45;;;;;;;3.11;nan;95401.53;5046013;28;20584;-38
2020/12/09 00:51:48;;;;;;;52.13;24.02;;;;;;;3.17;nan;95402.03;5047399;28;20603;-38
2020/12/09 00:54:15;;;;;;;51.97;24.02;;;;;;;3.13;nan;95400.53;5047042;28;20246;-38
2020/12/09 00:56:46;;;;;;;53.65;24.48;;;;;;;3.20;nan;95396.75;5053096;28;20392;-44
2020/12/09 00:59:13;;;;;;;55.10;22.75;;;;;;;3.31;nan;95399.56;5044332;28;20314;-45
2020/12/09 01:01:43;;;;;;;52.45;22.88;;;;;;;3.32;nan;95401.22;5046447;28;20226;-44
2020/12/09 01:04:12;;;;;;;47.72;21.13;;;;;;;3.33;nan;95397.75;5044595;28;20753;-44
2020/12/09 01:06:39;;;;;;;54.83;24.42;;;;;;;3.31;nan;95398.75;5047081;28;20879;-44
2020/12/09 01:09:07;;;;;;;47.80;22.02;;;;;;;3.31;nan;95399.56;5045312;28;20279;-49
2020/12/09 01:11:34;;;;;;;55.22;24.08;;;;;;;3.39;nan;95399.97;5044989;28;20718;-45
2020/12/09 01:14:02;;;;;;;56.05;25.05;;;;;;;3.51;nan;95401.06;5047184;28;20752;-44
2020/12/09 01:16:29;;;;;;;53.50;25.50;;;;;;;3.50;nan;95399.41;5049300;28;20203;-45
2020/12/09 01:18:55;;;;;;;52.65;23.50;;;;;;;3.52;nan;95410.47;5046822;28;20329;-45
2020/12/09 01:21:29;;;;;;;55.42;24.67;;;;;;;3.59;nan;95410.03;5053690;28;20589;-45
2020/12/09 01:23:56;;;;;;;56.50;25.92;;;;;;;3.60;nan;95409.13;5049618;28;20669;-45
2020/12/09 01:26:23;;;;;;;55.13;26.05;;;;;;;3.62;nan;95409.03;5048893;28;20739;-45
2020/12/09 01:28:50;;;;;;;53.75;24.75;;;;;;;3.48;nan;95399.50;5046971;28;20250;-44
2020/12/09 01:31:30;;;;;;;53.88;22.55;;;;;;;3.53;nan;95415.50;5060905;28;20244;-44
2020/12/09 01:33:57;;;;;;;58.03;25.02;;;;;;;3.46;nan;95414.16;5046849;28;20685;-38
2020/12/09 01:36:24;;;;;;;51.22;24.95;;;;;;;3.41;nan;95411.03;5043975;28;20290;-38
2020/12/09 01:38:52;;;;;;;57.90;23.95;;;;;;;3.21;nan;95376.97;5045708;28;20223;-38
2020/12/09 01:41:20;;;;;;;52.38;24.58;;;;;;;3.50;nan;95418.25;5047535;28;20519;-38
2020/12/09 01:43:48;;;;;;;52.15;22.27;;;;;;;3.56;nan;95420.50;5048138;28;20314;-38
2020/12/09 01:46:16;;;;;;;51.28;23.27;;;;;;;3.63;nan;95415.84;5046257;28;20769;-38
2020/12/09 01:48:44;;;;;;;58.13;24.13;;;;;;;3.67;nan;95418.16;5044215;28;20247;-38
2020/12/09 01:51:13;;;;;;;49.38;23.67;;;;;;;3.68;nan;95424.97;5047532;28;20200;-44
2020/12/09 01:53:41;;;;;;;56.95;24.83;;;;;;;3.65;nan;95420.00;5039916;28;20321;-45
2020/12/09 01:56:08;;;;;;;55.15;25.30;;;;;;;3.59;nan;95425.47;5045400;28;20191;-45
2020/12/09 01:58:35;;;;;;;44.03;21.70;;;;;;;3.53;nan;95430.13;5043018;28;20649;-48
2020/12/09 02:01:02;;;;;;;55.92;24.33;;;;;;;3.58;nan;95434.09;5048015;28;20322;-45
2020/12/09 02:03:29;;;;;;;49.28;23.90;;;;;;;3.10;nan;95369.03;5046420;28;20589;-45
2020/12/09 02:05:56;;;;;;;49.22;23.85;;;;;;;3.56;nan;95438.50;5045050;28;20634;-45
2020/12/09 02:08:24;;;;;;;54.47;25.42;;;;;;;3.68;nan;95435.25;5045517;28;20317;-44
2020/12/09 02:10:56;;;;;;;53.45;24.50;;;;;;;3.68;nan;95432.69;5045315;28;20632;-44
2020/12/09 02:13:23;;;;;;;54.42;25.55;;;;;;;3.68;nan;95427.53;5029511;28;20915;-50
2020/12/09 02:15:50;;;;;;;52.58;24.08;;;;;;;3.70;nan;95438.59;5042462;28;20273;-44
2020/12/09 02:18:17;;;;;;;55.40;25.90;;;;;;;3.65;nan;95442.31;5044850;28;20662;-46
2020/12/09 02:20:44;;;;;;;52.90;25.45;;;;;;;3.65;nan;95455.16;5046013;28;20700;-45
2020/12/09 02:23:13;;;;;;;50.78;23.15;;;;;;;3.64;nan;95459.50;5042913;28;20689;-45
2020/12/09 02:25:40;;;;;;;52.65;24.45;;;;;;;3.64;nan;95462.06;5039591;28;20625;-45
2020/12/09 02:28:09;;;;;;;49.30;22.65;;;;;;;3.65;nan;95471.44;5038960;28;20681;-45
2020/12/09 02:30:36;;;;;;;51.85;24.10;;;;;;;3.51;nan;95480.78;5043139;28;20253;-45
2020/12/09 02:33:03;;;;;;;50.13;24.02;;;;;;;3.56;nan;95484.78;5038509;28;20299;-44
2020/12/09 02:35:30;;;;;;;52.45;23.50;;;;;;;3.49;nan;95472.31;5045847;28;20315;-45
2020/12/09 02:37:58;;;;;;;51.60;24.80;;;;;;;3.56;nan;95487.38;5043805;28;20300;-44
2020/12/09 02:40:26;;;;;;;55.22;24.95;;;;;;;3.59;nan;95483.81;5042683;28;20639;-44
2020/12/09 02:42:53;;;;;;;51.50;24.23;;;;;;;3.56;nan;95482.22;5044739;28;20195;-44
2020/12/09 02:45:20;;;;;;;54.92;23.02;;;;;;;3.14;nan;95411.63;5046035;28;20289;-44
2020/12/09 02:47:47;;;;;;;58.60;24.35;;;;;;;3.64;nan;95487.78;5039477;28;20236;-44
2020/12/09 02:50:14;;;;;;;52.67;24.42;;;;;;;3.56;nan;95489.94;5046399;28;20222;-44
2020/12/09 02:52:41;;;;;;;57.78;24.90;;;;;;;3.57;nan;95483.03;5048512;28;20285;-44
2020/12/09 02:55:07;;;;;;;53.20;23.50;;;;;;;3.63;nan;95490.44;5037230;28;20973;-44
2020/12/09 02:57:35;;;;;;;61.70;26.98;;;;;;;3.69;nan;95490.97;5044957;28;20605;-45
2020/12/09 03:00:04;;;;;;;51.47;23.42;;;;;;;3.78;nan;95499.91;5044258;28;20331;-45
2020/12/09 03:02:31;;;;;;;50.53;23.40;;;;;;;3.75;nan;95497.50;5045639;28;20297;-45
2020/12/09 03:04:58;;;;;;;55.05;25.88;;;;;;;3.65;nan;95497.16;5044199;28;20617;-45
2020/12/09 03:07:25;;;;;;;51.85;26.02;;;;;;;3.60;nan;95504.28;5042300;28;20218;-45
2020/12/09 03:09:52;;;;;;;55.25;26.17;;;;;;;3.58;nan;95495.81;5044398;28;20327;-45
2020/12/09 03:12:19;;;;;;;55.53;26.52;;;;;;;3.40;nan;95480.53;5045264;28;20303;-45
2020/12/09 03:14:46;;;;;;;58.55;27.40;;;;;;;3.41;nan;95493.31;5047377;28;20828;-45
2020/12/09 03:17:14;;;;;;;53.00;25.25;;;;;;;3.44;nan;95502.63;5044454;28;20219;-50
2020/12/09 03:19:40;;;;;;;57.70;27.40;;;;;;;3.53;nan;95502.13;5042566;28;20249;-45
2020/12/09 03:22:07;;;;;;;53.55;25.50;;;;;;;3.49;nan;95495.47;5051810;28;20724;-44
2020/12/09 03:24:34;;;;;;;59.60;25.95;;;;;;;3.31;nan;95491.28;5046887;28;20323;-44
2020/12/09 03:27:01;;;;;;;51.88;25.58;;;;;;;3.32;nan;95516.91;5045313;28;20282;-45
2020/12/09 03:29:28;;;;;;;52.85;25.35;;;;;;;2.90;nan;95459.16;5044378;28;20709;-45
2020/12/09 03:31:56;;;;;;;52.08;25.30;;;;;;;3.37;nan;95512.38;5046642;28;20608;-44
2020/12/09 03:34:23;;;;;;;57.63;27.23;;;;;;;2.94;nan;95455.53;5046478;28;20860;-45
2020/12/09 03:36:49;;;;;;;56.97;26.67;;;;;;;3.28;nan;95525.69;5046857;28;20282;-44
2020/12/09 03:39:16;;;;;;;58.38;26.30;;;;;;;3.14;nan;95510.16;5044323;28;20335;-44
2020/12/09 03:41:57;;;;;;;61.92;26.50;;;;;;;3.20;nan;95525.25;5043649;28;20538;-46
2020/12/09 03:44:29;;;;;;;52.42;26.55;;;;;;;3.07;nan;95526.78;5046558;28;20841;-44
2020/12/09 03:46:57;;;;;;;53.38;25.25;;;;;;;3.01;nan;95533.97;5047931;28;20587;-38
2020/12/09 03:49:24;;;;;;;56.22;26.95;;;;;;;2.94;nan;95530.88;5046803;28;20226;-38
2020/12/09 03:51:51;;;;;;;54.08;26.05;;;;;;;2.96;nan;95536.78;5050338;28;20649;-38
2020/12/09 03:54:17;;;;;;;59.25;25.90;;;;;;;2.98;nan;95528.97;5048988;28;20294;-38
2020/12/09 03:56:44;;;;;;;50.05;23.70;;;;;;;2.99;nan;95521.19;5046851;28;20289;-38
2020/12/09 03:59:11;;;;;;;55.08;26.25;;;;;;;2.97;nan;95524.75;5048745;28;20656;-38
2020/12/09 04:01:38;;;;;;;59.58;25.75;;;;;;;2.85;nan;95523.63;5049546;28;20673;-38
2020/12/09 04:04:39;;;;;;;52.25;24.15;;;;;;;2.84;nan;95516.81;5049911;28;20263;-38
2020/12/09 04:07:06;;;;;;;55.75;26.55;;;;;;;2.77;nan;95514.63;5045722;28;20536;-38
2020/12/09 04:09:33;;;;;;;54.60;24.05;;;;;;;2.81;nan;95511.00;5045238;28;20512;-38
2020/12/09 04:12:00;;;;;;;51.85;23.73;;;;;;;2.80;nan;95509.34;5047984;28;20224;-38
2020/12/09 04:14:29;;;;;;;51.90;23.98;;;;;;;2.83;nan;95509.19;5051050;28;20227;-38
2020/12/09 04:16:55;;;;;;;50.78;24.85;;;;;;;2.84;nan;95511.69;5046865;28;20713;-38
2020/12/09 04:19:22;;;;;;;54.53;24.73;;;;;;;2.85;nan;95512.50;5045005;28;20233;-38
2020/12/09 04:21:50;;;;;;;46.42;24.15;;;;;;;2.85;nan;95523.63;5044119;28;20885;-43
2020/12/09 04:24:17;;;;;;;54.83;26.25;;;;;;;2.78;nan;95529.97;5047131;28;20321;-39
2020/12/09 04:26:43;;;;;;;55.72;24.55;;;;;;;2.78;nan;95526.59;5048364;28;20653;-38
2020/12/09 04:29:10;;;;;;;55.75;25.40;;;;;;;2.68;nan;95523.63;5044358;28;20310;-37
2020/12/09 04:31:37;;;;;;;60.05;25.20;;;;;;;2.74;nan;95519.91;5048224;28;20624;-37
2020/12/09 04:34:05;;;;;;;54.15;25.65;;;;;;;2.69;nan;95517.56;5047031;28;20322;-38
2020/12/09 04:36:32;;;;;;;50.33;23.08;;;;;;;2.62;nan;95516.22;5046958;28;20289;-37
2020/12/09 04:39:00;;;;;;;58.67;26.80;;;;;;;2.66;nan;95527.97;5052884;28;20307;-37
2020/12/09 04:41:27;;;;;;;57.80;25.65;;;;;;;2.68;nan;95526.19;5047475;28;20654;-37
2020/12/09 04:43:54;;;;;;;59.55;27.08;;;;;;;2.74;nan;95531.03;5047669;28;20225;-38
2020/12/09 04:46:21;;;;;;;52.33;23.67;;;;;;;2.67;nan;95528.81;5047015;28;20493;-37
2020/12/09 04:48:56;;;;;;;57.72;25.42;;;;;;;2.66;nan;95540.00;5046323;28;20607;-37
2020/12/09 04:51:44;;;;;;;57.80;26.40;;;;;;;2.72;nan;95537.97;5047311;28;20664;-37
2020/12/09 04:54:15;;;;;;;55.42;25.80;;;;;;;2.79;nan;95544.47;5045038;28;20246;-38
2020/12/09 04:56:54;;;;;;;54.42;25.08;;;;;;;2.78;nan;95542.81;5046582;28;20198;-37
2020/12/09 04:59:24;;;;;;;57.67;26.27;;;;;;;2.69;nan;95545.81;5046425;28;20337;-37
2020/12/09 05:02:02;;;;;;;62.65;27.50;;;;;;;2.68;nan;95546.75;5047523;28;20302;-38
2020/12/09 05:04:32;;;;;;;55.40;25.23;;;;;;;2.33;nan;95511.66;5049395;28;20246;-37
2020/12/09 05:07:05;;;;;;;59.55;33.33;;;;;;;2.71;nan;95551.72;5046917;28;20930;-38
2020/12/09 05:09:41;;;;;;;53.55;24.85;;;;;;;2.66;nan;95558.81;5048227;28;20625;-44
2020/12/09 05:12:11;;;;;;;58.58;25.88;;;;;;;2.61;nan;95571.06;5044162;28;20248;-44
2020/12/09 05:14:44;;;;;;;51.08;25.15;;;;;;;2.60;nan;95574.53;5048870;28;20314;-44
2020/12/09 05:17:16;;;;;;;56.63;25.38;;;;;;;2.65;nan;95577.69;5044658;28;20277;-44
2020/12/09 05:19:44;;;;;;;61.45;26.40;;;;;;;2.66;nan;95578.53;5042169;28;20726;-44
2020/12/09 05:22:16;;;;;;;53.30;24.65;;;;;;;2.63;nan;95576.94;5047609;28;20745;-44
2020/12/09 05:24:45;;;;;;;56.10;24.65;;;;;;;2.70;nan;95573.16;5041743;28;20591;-47
2020/12/09 05:27:12;;;;;;;53.78;24.15;;;;;;;2.65;nan;95577.69;5045785;28;20236;-45
2020/12/09 05:29:46;;;;;;;51.85;23.67;;;;;;;2.69;nan;95584.34;5044543;28;20253;-44
2020/12/09 05:32:14;;;;;;;49.00;22.35;;;;;;;2.67;nan;95572.50;5045608;28;20284;-44
2020/12/09 05:38:28;;;;;;;53.92;24.33;;;;;;;2.60;nan;95583.97;5064163;28;20224;-44
2020/12/09 05:40:57;;;;;;;52.90;24.83;;;;;;;2.63;nan;95584.63;5068046;28;20228;-44
2020/12/09 05:43:24;;;;;;;54.28;25.15;;;;;;;2.71;nan;95592.81;5067523;28;20238;-44
2020/12/09 05:45:51;;;;;;;60.38;24.90;;;;;;;2.76;nan;95585.72;5068107;28;20202;-44
2020/12/09 05:48:21;;;;;;;57.30;25.27;;;;;;;2.78;nan;95594.19;5064162;28;20319;-44
2020/12/09 05:50:51;;;;;;;58.00;26.90;;;;;;;2.79;nan;95595.84;5069826;28;20584;-44
2020/12/09 05:53:20;;;;;;;55.00;25.83;;;;;;;2.80;nan;95592.38;5066659;28;20710;-45
2020/12/09 05:55:48;;;;;;;57.20;26.52;;;;;;;2.81;nan;95594.03;5064606;28;20214;-44
2020/12/09 05:58:22;;;;;;;53.20;24.70;;;;;;;2.74;nan;95590.13;5068275;28;20302;-44
2020/12/09 06:01:10;;;;;;;56.83;25.33;;;;;;;2.78;nan;95595.94;5071087;28;20738;-44
2020/12/09 06:03:38;;;;;;;58.35;25.60;;;;;;;2.80;nan;95602.63;5060266;28;20250;-45
2020/12/09 06:06:19;;;;;;;58.35;25.42;;;;;;;2.73;nan;95598.69;5067523;28;20254;-44
2020/12/09 06:08:48;;;;;;;50.35;24.42;;;;;;;2.75;nan;95589.22;5067499;28;20218;-44
2020/12/09 06:11:17;;;;;;;51.97;25.33;;;;;;;2.75;nan;95593.50;5065458;28;20230;-45
2020/12/09 06:13:45;;;;;;;49.60;22.25;;;;;;;2.75;nan;95599.47;5063360;28;20790;-44
2020/12/09 06:16:12;;;;;;;60.13;27.20;;;;;;;2.69;nan;95593.78;5064407;28;20648;-44
2020/12/09 06:18:43;;;;;;;50.13;23.60;;;;;;;2.66;nan;95593.94;5062017;28;20299;-44
2020/12/09 06:21:10;;;;;;;55.72;25.55;;;;;;;2.60;nan;95600.22;5065094;28;20214;-45
2020/12/09 06:23:39;;;;;;;53.92;23.27;;;;;;;2.61;nan;95604.44;5068317;28;20243;-45
2020/12/09 06:26:06;;;;;;;50.78;23.95;;;;;;;2.63;nan;95609.47;5067453;28;20672;-44
2020/12/09 06:28:35;;;;;;;57.45;24.65;;;;;;;2.62;nan;95611.22;5067376;28;20809;-47
2020/12/09 06:31:14;;;;;;;53.97;24.52;;;;;;;2.63;nan;95609.47;5062048;28;20303;-45
2020/12/09 06:33:42;;;;;;;60.72;25.17;;;;;;;2.52;nan;95602.31;5060436;28;20308;-45
2020/12/09 06:36:15;;;;;;;58.63;25.58;;;;;;;2.57;nan;95613.19;5064167;28;20300;-38
2020/12/09 06:39:02;;;;;;;57.45;26.90;;;;;;;2.59;nan;95611.34;5060238;28;20781;-44
2020/12/09 06:41:29;;;;;;;62.50;25.50;;;;;;;2.37;nan;95582.44;5063746;28;20294;-44
2020/12/09 06:44:04;;;;;;;54.50;25.95;;;;;;;2.49;nan;95610.13;5065761;28;20298;-44
2020/12/09 06:46:48;;;;;;;52.03;25.17;;;;;;;2.47;nan;95606.81;5079110;28;20602;-43
2020/12/09 06:49:39;;;;;;;51.05;24.65;;;;;;;2.49;nan;95602.44;5063735;28;20232;-38
2020/12/09 06:52:31;;;;;;;50.10;24.48;;;;;;;2.54;nan;95605.63;5068398;28;20564;-38
2020/12/09 06:54:59;;;;;;;56.50;23.00;;;;;;;2.58;nan;95614.03;5062032;28;20554;-39
2020/12/09 06:57:29;;;;;;;50.42;24.00;;;;;;;2.42;nan;95589.97;5061625;28;20570;-41
2020/12/09 07:00:16;;;;;;;52.72;23.13;;;;;;;2.53;nan;95627.06;5066167;28;20786;-38
2020/12/09 07:02:46;;;;;;;57.55;23.75;;;;;;;2.32;nan;95597.25;5067435;28;20231;-38
2020/12/09 07:05:18;;;;;;;58.58;24.55;;;;;;;2.48;nan;95616.19;5066504;28;20216;-38
2020/12/09 07:07:48;;;;;;;52.08;24.85;;;;;;;2.59;nan;95631.91;5061248;28;20292;-38
2020/12/09 07:10:27;;;;;;;54.25;23.73;;;;;;;2.61;nan;95635.25;5067661;28;20236;-38
2020/12/09 07:15:45;;;;;;;55.60;24.15;;;;;;;2.54;nan;95651.84;5029517;23;20240;-39
2020/12/09 07:18:14;;;;;;;62.88;26.13;;;;;;;2.49;nan;95646.09;4960876;28;20227;-43
2020/12/09 07:20:42;;;;;;;55.58;25.02;;;;;;;2.66;nan;95653.81;4965907;28;20523;-44
2020/12/09 07:23:09;;;;;;;52.20;24.52;;;;;;;2.71;nan;95656.22;4965036;28;20226;-44
2020/12/09 07:25:36;;;;;;;49.03;23.33;;;;;;;2.69;nan;95661.41;4970773;28;20234;-44
2020/12/09 07:28:03;;;;;;;51.88;23.55;;;;;;;2.67;nan;95657.25;4967195;28;20285;-44
2020/12/09 07:30:31;;;;;;;55.72;23.67;;;;;;;2.69;nan;95666.53;4972456;28;20284;-39
2020/12/09 07:32:57;;;;;;;58.90;26.17;;;;;;;2.67;nan;95665.78;4970838;28;20686;-40
2020/12/09 07:35:25;;;;;;;53.78;24.23;;;;;;;2.65;nan;95667.56;4971615;28;20732;-45
2020/12/09 07:37:55;;;;;;;65.68;26.77;;;;;;;2.70;nan;95668.22;4970693;28;20207;-44
2020/12/09 07:40:25;;;;;;;47.85;23.10;;;;;;;2.68;nan;95671.75;4969903;28;20625;-45
2020/12/09 07:43:06;;;;;;;51.72;24.95;;;;;;;2.78;nan;95675.56;4973597;28;20207;-44
2020/12/09 07:45:35;;;;;;;55.17;24.65;;;;;;;2.84;nan;95677.81;4971223;28;20641;-45
2020/12/09 07:48:05;;;;;;;59.15;25.35;;;;;;;2.80;nan;95684.03;4970173;28;20288;-45
2020/12/09 07:50:33;;;;;;;56.90;25.77;;;;;;;2.79;nan;95687.50;4971494;28;20728;-45
2020/12/09 07:53:00;;;;;;;55.08;27.25;;;;;;;2.74;nan;95679.16;4970148;28;20820;-44
2020/12/09 07:55:28;;;;;;;56.58;26.98;;;;;;;2.81;nan;95686.50;4971298;28;20598;-45
2020/12/09 07:58:15;;;;;;;61.10;28.70;;;;;;;2.81;nan;95685.69;4978819;28;20281;-46
2020/12/09 08:00:44;;;;;;;48.30;23.40;;;;;;;2.87;nan;95681.09;4972042;28;20245;-39
2020/12/09 08:03:17;;;;;;;59.22;25.77;;;;;;;2.88;nan;95687.06;4968690;28;20512;-39
2020/12/09 08:05:45;;;;;;;54.17;23.73;;;;;;;2.83;nan;95700.13;4971219;28;20612;-44
2020/12/09 08:08:13;;;;;;;58.92;24.05;;;;;;;2.84;nan;95685.53;4967857;28;20279;-44
2020/12/09 08:10:43;;;;;;;53.65;26.50;;;;;;;2.52;nan;95627.97;4965778;28;20659;-45
2020/12/09 08:13:11;;;;;;;54.63;25.75;;;;;;;2.88;nan;95677.59;4970514;28;20224;-44
2020/12/09 08:15:40;;;;;;;52.42;24.92;;;;;;;2.89;nan;95679.31;4971977;28;20289;-45
2020/12/09 08:18:07;;;;;;;54.78;25.27;;;;;;;2.77;nan;95682.44;4965784;28;20309;-45
2020/12/09 08:23:41;;;;;;;63.70;29.65;;;;;;;3.02;nan;95694.97;4984482;28;20225;-45
2020/12/09 08:26:09;;;;;;;75.40;36.70;;;;;;;3.08;nan;95699.81;4989812;28;20639;-45
2020/12/09 08:28:36;;;;;;;53.25;24.63;;;;;;;3.05;nan;95699.94;4988916;28;20304;-45
2020/12/09 08:31:13;;;;;;;63.50;28.60;;;;;;;2.99;nan;95697.66;4989427;28;20587;-45
2020/12/09 08:33:40;;;;;;;62.95;26.65;;;;;;;2.90;nan;95701.50;4982564;28;20279;-44
2020/12/09 08:36:09;;;;;;;53.80;24.83;;;;;;;3.05;nan;95716.22;4989171;28;20227;-48
2020/12/09 08:38:40;;;;;;;51.65;23.95;;;;;;;2.99;nan;95721.63;4990667;28;20258;-44
2020/12/09 08:41:28;;;;;;;53.28;26.40;;;;;;;3.06;nan;95728.16;4992859;28;20505;-45
2020/12/09 08:43:57;;;;;;;52.00;25.05;;;;;;;3.07;nan;95724.69;4989047;28;20330;-44
2020/12/09 08:46:25;;;;;;;51.30;24.50;;;;;;;3.04;nan;95727.41;4990198;28;20243;-45
2020/12/09 08:48:53;;;;;;;51.47;22.80;;;;;;;3.20;nan;95730.91;4990189;28;20315;-45
2020/12/09 08:51:24;;;;;;;48.25;21.95;;;;;;;3.28;nan;95722.81;4990157;28;20784;-45
2020/12/09 08:53:51;;;;;;;49.20;23.63;;;;;;;3.35;nan;95729.34;4989204;28;20290;-45
2020/12/09 08:56:24;;;;;;;49.90;22.15;;;;;;;3.36;nan;95725.84;4980566;28;20235;-45
2020/12/09 08:58:52;;;;;;;50.75;22.33;;;;;;;3.41;nan;95729.03;4985325;28;20312;-45
2020/12/09 09:01:19;;;;;;;48.90;21.50;;;;;;;3.43;nan;95732.38;4985864;28;20230;-45
2020/12/09 09:03:47;;;;;;;46.70;21.17;;;;;;;3.41;nan;95737.59;4985346;28;20215;-45
2020/12/09 09:06:14;;;;;;;39.83;20.67;;;;;;;3.38;nan;95731.78;4988183;28;20734;-45
2020/12/09 09:08:41;;;;;;;46.28;22.17;;;;;;;3.38;nan;95732.59;4991153;28;20220;-45
2020/12/09 09:11:08;;;;;;;42.58;21.30;;;;;;;3.29;nan;95724.47;5007505;28;20260;-46
2020/12/09 09:13:35;;;;;;;45.55;22.65;;;;;;;3.40;nan;95741.09;4993986;28;20228;-39
2020/12/09 09:16:07;;;;;;;44.92;22.48;;;;;;;3.43;nan;95747.78;4990065;28;20225;-39
2020/12/09 09:18:35;;;;;;;49.30;21.85;;;;;;;3.43;nan;95732.38;4991292;28;21015;-39
2020/12/09 09:21:02;;;;;;;44.80;21.15;;;;;;;3.40;nan;95748.81;4990980;28;20271;-45
2020/12/09 09:23:29;;;;;;;46.95;22.13;;;;;;;3.58;nan;95747.06;5027770;28;20779;-45
2020/12/09 09:26:09;;;;;;;43.40;20.80;;;;;;;3.70;nan;95751.63;5026237;28;20779;-45
2020/12/09 09:28:36;;;;;;;42.92;21.55;;;;;;;3.05;nan;95659.69;5043241;22;20279;-44
2020/12/09 09:31:03;;;;;;;38.47;20.63;;;;;;;3.08;nan;95659.50;5005907;28;20655;-45
2020/12/09 09:33:30;;;;;;;42.15;21.13;;;;;;;3.64;nan;95742.47;5012925;28;20767;-45
2020/12/09 09:35:57;;;;;;;40.88;20.30;;;;;;;3.58;nan;95747.91;5009288;28;20291;-45
2020/12/09 09:38:24;;;;;;;41.70;20.08;;;;;;;3.58;nan;95752.19;5007827;28;20220;-48
2020/12/09 09:40:52;;;;;;;39.28;19.73;;;;;;;3.39;nan;95721.41;5008418;28;20703;-45
2020/12/09 09:43:20;;;;;;;41.08;18.50;;;;;;;3.50;nan;95734.59;5007269;28;20242;-44
2020/12/09 09:45:48;;;;;;;39.10;19.20;;;;;;;3.55;nan;95742.06;5005490;28;20635;-45
2020/12/09 09:48:15;;;;;;;42.63;19.05;;;;;;;3.50;nan;95739.72;5008823;28;20627;-38
2020/12/09 09:50:42;;;;;;;42.72;19.58;;;;;;;3.61;nan;95737.44;5010000;28;20277;-39
2020/12/09 09:53:10;;;;;;;35.50;19.13;;;;;;;3.73;nan;95738.59;5006531;28;20611;-38
2020/12/09 09:55:36;;;;;;;40.72;17.75;;;;;;;3.68;nan;95735.44;5000902;28;20662;-38
2020/12/09 09:58:04;;;;;;;42.75;20.75;;;;;;;3.65;nan;95743.28;5006129;28;20577;-38
2020/12/09 10:00:31;;;;;;;45.65;19.13;;;;;;;3.55;nan;95742.91;5008216;28;20687;-38
2020/12/09 10:02:57;;;;;;;32.80;17.50;;;;;;;3.53;nan;95733.59;5002693;28;20758;-38
2020/12/09 10:05:24;;;;;;;40.20;17.90;;;;;;;3.51;nan;95736.25;5005773;28;20196;-39
2020/12/09 10:07:52;;;;;;;37.90;16.92;;;;;;;3.34;nan;95717.38;5006381;28;20215;-38
2020/12/09 10:10:19;;;;;;;37.63;17.77;;;;;;;3.36;nan;95733.56;5005083;28;20290;-38
2020/12/09 10:12:46;;;;;;;42.75;17.77;;;;;;;3.42;nan;95733.28;5010661;28;20199;-38
2020/12/09 10:15:13;;;;;;;40.50;18.52;;;;;;;3.44;nan;95732.31;5008120;28;20303;-38
2020/12/09 10:17:46;;;;;;;42.55;19.15;;;;;;;3.46;nan;95729.66;5003034;28;20552;-38
2020/12/09 10:20:13;;;;;;;37.97;17.45;;;;;;;3.50;nan;95733.75;5008081;28;20224;-38
2020/12/09 10:22:40;;;;;;;40.65;19.02;;;;;;;3.54;nan;95742.97;5005192;28;20231;-38
2020/12/09 10:25:07;;;;;;;35.30;17.67;;;;;;;3.57;nan;95735.09;5005458;28;20919;-38
2020/12/09 10:27:34;;;;;;;35.75;17.02;;;;;;;3.58;nan;95736.75;5008032;28;20718;-38
2020/12/09 10:30:01;;;;;;;37.25;17.50;;;;;;;3.51;nan;95736.25;5006185;28;20323;-38
2020/12/09 10:32:30;;;;;;;36.47;16.20;;;;;;;3.53;nan;95734.41;5005708;28;20603;-38
2020/12/09 10:34:57;;;;;;;32.47;16.70;;;;;;;3.55;nan;95736.94;5005164;28;20221;-43
2020/12/09 10:37:30;;;;;;;41.45;18.13;;;;;;;3.44;nan;95723.78;5007191;28;20228;-39
2020/12/09 10:40:12;;;;;;;38.03;18.17;;;;;;;3.31;nan;95702.94;4989275;28;20627;-39
2020/12/09 10:42:39;;;;;;;47.22;21.30;;;;;;;3.55;nan;95731.78;4999179;28;20228;-38
2020/12/09 10:45:08;;;;;;;44.75;19.75;;;;;;;3.40;nan;95687.09;5008314;28;20251;-38
2020/12/09 10:47:36;;;;;;;50.85;19.38;;;;;;;3.60;nan;95719.53;5008454;28;20515;-39
2020/12/09 10:50:04;;;;;;;46.20;21.45;;;;;;;3.59;nan;95723.84;5005096;28;20353;-39
2020/12/09 10:52:31;;;;;;;47.33;20.48;;;;;;;3.76;nan;95731.56;5006074;28;20282;-39
2020/12/09 10:54:58;;;;;;;41.35;19.73;;;;;;;3.67;nan;95695.19;5003951;28;20297;-39
2020/12/09 11:01:09;;;;;;;50.45;20.20;;;;;;;3.89;nan;95729.22;5027291;28;20315;-50
2020/12/09 11:03:35;;;;;;;45.47;22.15;;;;;;;3.76;nan;95731.56;5025273;28;20299;-49
2020/12/09 11:06:02;;;;;;;49.03;19.58;;;;;;;3.86;nan;95739.66;5024116;28;20285;-50
2020/12/09 11:08:30;;;;;;;46.20;19.40;;;;;;;3.90;nan;95729.13;5035568;28;20246;-44
2020/12/09 11:10:57;;;;;;;40.45;20.58;;;;;;;3.86;nan;95732.78;5034129;28;20614;-44
2020/12/09 11:13:24;;;;;;;41.80;19.35;;;;;;;3.92;nan;95732.47;5025125;28;20649;-44
2020/12/09 11:15:51;;;;;;;32.65;16.90;;;;;;;3.93;nan;95727.22;5024957;28;20238;-44
2020/12/09 11:18:19;;;;;;;52.60;19.83;;;;;;;3.92;nan;95727.34;5021297;28;20215;-44
2020/12/09 11:20:45;;;;;;;37.75;19.30;;;;;;;3.98;nan;95733.00;5026966;28;20333;-44
2020/12/09 11:23:12;;;;;;;39.75;19.88;;;;;;;3.96;nan;95726.25;5022106;28;20658;-44
2020/12/09 11:25:39;;;;;;;39.40;19.83;;;;;;;3.96;nan;95722.88;5022158;28;20196;-44
2020/12/09 11:28:07;;;;;;;40.65;19.70;;;;;;;3.93;nan;95716.13;5027088;28;20659;-44
2020/12/09 11:30:33;;;;;;;35.45;18.05;;;;;;;4.00;nan;95718.28;5025721;28;20227;-44
2020/12/09 11:33:01;;;;;;;39.55;20.80;;;;;;;4.06;nan;95704.31;5024898;28;20282;-43
2020/12/09 11:35:28;;;;;;;42.00;19.67;;;;;;;3.95;nan;95711.72;5028475;28;20196;-44
2020/12/09 11:37:56;;;;;;;39.78;19.50;;;;;;;4.00;nan;95710.56;5023958;28;20282;-44
2020/12/09 11:40:25;;;;;;;37.13;19.15;;;;;;;4.12;nan;95716.84;5024558;28;20283;-44
2020/12/09 11:42:52;;;;;;;52.10;20.45;;;;;;;4.09;nan;95706.72;5023517;28;20219;-44
2020/12/09 11:45:19;;;;;;;40.83;18.85;;;;;;;4.13;nan;95716.75;5020002;28;20263;-44
2020/12/09 11:47:46;;;;;;;44.72;21.00;;;;;;;4.19;nan;95715.63;5025428;28;20302;-44
2020/12/09 11:50:13;;;;;;;41.72;19.88;;;;;;;4.11;nan;95708.28;5022273;28;20259;-44
2020/12/09 11:52:40;;;;;;;40.88;18.77;;;;;;;4.14;nan;95699.59;5022140;28;20407;-44
2020/12/09 11:55:07;;;;;;;42.67;21.90;;;;;;;4.08;nan;95697.31;5025597;28;20302;-44
2020/12/09 11:57:34;;;;;;;44.88;22.70;;;;;;;4.00;nan;95699.47;5024935;28;20473;-44
2020/12/09 12:00:01;;;;;;;43.72;21.67;;;;;;;4.04;nan;95695.81;5024112;28;20251;-44
2020/12/09 12:02:27;;;;;;;45.53;20.98;;;;;;;4.06;nan;95691.44;5024716;28;20239;-44
2020/12/09 12:04:56;;;;;;;35.65;19.58;;;;;;;4.03;nan;95686.41;5023562;28;20277;-44